Impacts METAR Board
IDs:

KTIX - Titusville/Space Coa, FL, US

Updated at: 0100 UTC 12 May 2021
Potential Impact None Slight Moderate High
Time 11/13Z 11/14Z 11/15Z 11/16Z 11/17Z 11/18Z 11/19Z 11/20Z 11/21Z 11/22Z 11/23Z 12/00Z 12/01Z
Temp81 86 88 90 91 91 90 88 81 79 81
Dewpt72 66 64 63 61 66 68 66 68 75 72
Altim30.10 30.11 30.11 30.11 30.09 30.06 30.05 30.04 30.03 30.06 30.07 30.06
VIS7 7 7 7 7 7 7 7 7 7 7 7
CIG-- -- -- -- -- -- -- -- -- 120 100 --
CoverFEWFEWFEWFEWSCTSCTSCTSCTSCTBKNBKNSCT
FltCatVFRVFRVFRVFRVFRVFRVFRVFRVFRVFRVFRVFR
WX------------------VCSHVCSH--
WDir00010010012011012060070
WSpd0 0 0 5 4 5 6 10 10 6 5
WGst-- -- -- -- -- -- -- -- -- -- -- --
Raw hourly METARs
KTIX 111247Z 00000KT 7SM FEW120 27/22 A3010
KTIX 111347Z 00000KT 7SM FEW120 30/19 A3011
KTIX 111447Z 00000KT 7SM FEW030 31/18 A3011
KTIX 111547Z 10005KT 7SM FEW030 32/17 A3011
KTIX 111647Z 10004KT 7SM SCT060 33/16 A3009
KTIX 111747Z 1005KT 7SM SCT030 33/19 A3006
KTIX 111847Z 12005KT 7SM SCT030 33/120 A3005
KTIX 111950Z 11006KT 7SM SCT080 32/20 A3004
KTIX 112047Z 12010KT 7SM SCT100 31/19 A3003

KTIX 112247Z 06010KT 7SM VCSH SCT050 BKN120 27/20 A3006
KTIX 112350Z VRB06KT 7SM VCSH SCT050 BKN100 26/24 A3007
KTIX 120048Z 07005KT 7SM SCT090 27/22 A3006



Page loaded:  01:31 UTC  |   06:31 PM Pacific  |   07:31 PM Mountain  |   08:31 PM Central  |   09:31 PM Eastern

 

ADVISORIES

FORECASTS

FORECASTS

OBSERVATIONS

USER TOOLS

ABOUT US